createdAt,value
2018-10-16T00:01:52.221Z,62.91
2018-10-16T00:04:28.889Z,61.74
2018-10-16T00:07:04.379Z,61.87
2018-10-16T00:09:41.091Z,62.23
2018-10-16T00:12:15.613Z,62.50
2018-10-16T00:14:51.149Z,63.19
2018-10-16T00:17:25.973Z,63.78
2018-10-16T00:20:03.857Z,64.38
2018-10-16T00:22:38.484Z,64.50
2018-10-16T00:25:15.032Z,64.34
2018-10-16T00:27:49.755Z,64.71
2018-10-16T00:30:24.270Z,64.80
2018-10-16T00:32:59.022Z,64.32
2018-10-16T00:35:36.052Z,63.77
2018-10-16T00:38:10.568Z,63.29
2018-10-16T00:40:51.133Z,62.72
2018-10-16T00:43:45.419Z,61.84
2018-10-16T00:46:21.584Z,62.47
2018-10-16T00:48:56.483Z,62.54
2018-10-16T00:51:32.309Z,63.07
2018-10-16T00:54:17.380Z,63.52
2018-10-16T00:56:52.242Z,63.23
2018-10-16T00:59:26.809Z,63.56
2018-10-16T01:02:01.318Z,64.35
2018-10-16T01:04:36.281Z,64.78
2018-10-16T01:07:10.810Z,64.89
2018-10-16T01:09:45.680Z,64.46
2018-10-16T01:12:20.364Z,64.53
2018-10-16T01:14:55.030Z,63.88
2018-10-16T01:17:29.567Z,63.91
2018-10-16T01:20:04.077Z,63.90
2018-10-16T01:22:38.980Z,63.90
2018-10-16T01:25:14.071Z,63.81
2018-10-16T01:27:48.947Z,64.89
2018-10-16T01:30:23.482Z,64.91
2018-10-16T01:32:58.059Z,65.55
2018-10-16T01:35:32.925Z,65.21
2018-10-16T01:38:07.622Z,64.82
2018-10-16T01:40:42.492Z,64.92
2018-10-16T01:43:19.230Z,64.27
2018-10-16T01:45:53.722Z,64.39
2018-10-16T01:48:51.008Z,64.09
2018-10-16T01:51:25.983Z,63.16
2018-10-16T01:54:01.337Z,62.67
2018-10-16T01:56:35.941Z,62.45
2018-10-16T01:59:10.717Z,63.13
2018-10-16T02:01:45.373Z,64.00
2018-10-16T02:04:19.947Z,64.37
2018-10-16T02:06:55.433Z,64.23
2018-10-16T02:09:29.951Z,63.77
2018-10-16T02:12:04.570Z,63.49
2018-10-16T02:14:39.296Z,62.63
2018-10-16T02:17:14.040Z,62.64
2018-10-16T02:19:48.993Z,62.51
2018-10-16T02:22:35.104Z,62.10
2018-10-16T02:25:11.624Z,61.86
2018-10-16T02:27:46.126Z,61.98
2018-10-16T02:30:34.897Z,61.82
2018-10-16T02:33:09.857Z,61.23
2018-10-16T02:35:44.472Z,61.01
2018-10-16T02:38:19.286Z,60.77
2018-10-16T02:40:54.114Z,61.25
2018-10-16T02:43:28.625Z,61.91
2018-10-16T02:46:03.668Z,61.89
2018-10-16T02:48:38.619Z,62.18
2018-10-16T02:51:13.226Z,62.08
2018-10-16T02:53:47.955Z,61.57
2018-10-16T02:56:22.736Z,61.34
2018-10-16T02:58:57.871Z,61.22
2018-10-16T03:01:32.506Z,61.44
2018-10-16T03:04:07.136Z,61.48
2018-10-16T03:06:41.999Z,61.50
2018-10-16T03:09:16.719Z,61.72
2018-10-16T03:11:51.660Z,62.50
2018-10-16T03:14:26.637Z,62.26
2018-10-16T03:17:01.573Z,62.81
2018-10-16T03:19:36.254Z,62.61
2018-10-16T03:22:11.381Z,62.18
2018-10-16T03:24:46.277Z,62.70
2018-10-16T03:27:21.318Z,62.99
2018-10-16T03:29:56.275Z,63.42
2018-10-16T03:32:30.813Z,62.83
2018-10-16T03:35:20.247Z,62.55
2018-10-16T03:37:54.932Z,61.73
2018-10-16T03:40:29.576Z,62.10
2018-10-16T03:43:04.100Z,63.00
2018-10-16T03:45:38.953Z,63.72
2018-10-16T03:48:13.798Z,63.13
2018-10-16T03:50:48.331Z,64.55
2018-10-16T03:53:23.008Z,64.04
2018-10-16T03:55:57.785Z,61.31
2018-10-16T03:58:32.457Z,62.18
2018-10-16T04:01:06.992Z,60.59
2018-10-16T04:03:42.006Z,59.90
2018-10-16T04:06:16.889Z,60.26
2018-10-16T04:08:52.276Z,60.23
2018-10-16T04:11:26.953Z,61.79
2018-10-16T04:14:01.964Z,61.28
2018-10-16T04:16:37.024Z,61.50
2018-10-16T04:19:11.745Z,61.96
2018-10-16T04:21:47.409Z,61.73
2018-10-16T04:24:22.053Z,61.59
2018-10-16T04:26:56.620Z,62.33
2018-10-16T04:29:31.255Z,61.63
2018-10-16T04:32:06.796Z,62.41
2018-10-16T04:34:41.901Z,61.14
2018-10-16T04:37:16.398Z,62.81
2018-10-16T04:39:50.925Z,63.19
2018-10-16T04:42:25.448Z,63.24
2018-10-16T04:44:59.986Z,62.16
2018-10-16T04:47:34.496Z,62.75
2018-10-16T04:50:10.149Z,62.76
2018-10-16T04:52:44.718Z,64.11
2018-10-16T04:55:19.503Z,64.72
2018-10-16T04:57:53.981Z,63.80
2018-10-16T05:00:29.095Z,63.94
2018-10-16T05:03:03.768Z,63.99
2018-10-16T05:05:38.384Z,64.19
2018-10-16T05:08:12.920Z,64.21
2018-10-16T05:10:47.624Z,64.73
2018-10-16T05:13:22.335Z,64.95
2018-10-16T05:15:56.812Z,65.01
2018-10-16T05:18:31.604Z,64.65
2018-10-16T05:21:06.246Z,65.22
2018-10-16T05:23:40.739Z,65.47
2018-10-16T05:26:15.517Z,63.95
2018-10-16T05:28:50.158Z,64.21
2018-10-16T05:31:25.077Z,65.21
2018-10-16T05:33:59.389Z,65.25
2018-10-16T05:36:33.998Z,64.46
2018-10-16T05:39:11.367Z,64.24
2018-10-16T05:41:46.104Z,64.11
2018-10-16T05:44:20.578Z,64.08
2018-10-16T05:46:55.241Z,63.28
2018-10-16T05:49:29.912Z,63.24
2018-10-16T05:52:04.433Z,63.41
2018-10-16T05:54:39.356Z,63.26
2018-10-16T05:57:13.860Z,63.44
2018-10-16T05:59:48.836Z,63.09
2018-10-16T06:02:23.928Z,62.74
2018-10-16T06:04:58.500Z,63.69
2018-10-16T06:07:33.092Z,63.86
2018-10-16T06:10:08.081Z,65.07
2018-10-16T06:12:42.688Z,65.26
2018-10-16T06:15:17.388Z,65.38
2018-10-16T06:17:51.994Z,66.55
2018-10-16T06:20:26.439Z,66.57
2018-10-16T06:23:01.116Z,66.20
2018-10-16T06:25:35.707Z,66.09
2018-10-16T06:28:17.067Z,65.93
2018-10-16T06:30:51.583Z,65.28
2018-10-16T06:33:29.496Z,65.02
2018-10-16T06:36:04.620Z,65.38
2018-10-16T06:38:39.209Z,64.91
2018-10-16T06:41:14.315Z,65.10
2018-10-16T06:43:48.986Z,64.97
2018-10-16T06:46:23.453Z,64.92
2018-10-16T06:48:58.122Z,65.49
2018-10-16T06:51:32.733Z,63.78
2018-10-16T06:54:07.712Z,62.62
2018-10-16T06:56:42.196Z,62.69
2018-10-16T06:59:16.731Z,63.25
2018-10-16T07:01:51.684Z,62.38
2018-10-16T07:04:26.172Z,65.01
2018-10-16T07:07:00.960Z,65.01
2018-10-16T07:09:35.425Z,65.05
2018-10-16T07:12:10.233Z,63.86
2018-10-16T07:14:44.800Z,62.47
2018-10-16T07:17:19.566Z,59.71
2018-10-16T07:19:54.302Z,59.05
2018-10-16T07:22:28.993Z,57.87
2018-10-16T07:25:03.550Z,56.95
2018-10-16T07:30:37.240Z,59.87
2018-10-16T07:33:12.289Z,60.43
2018-10-16T07:35:47.942Z,59.32
2018-10-16T07:38:23.045Z,58.90
2018-10-16T07:40:57.946Z,58.20
2018-10-16T07:43:32.506Z,59.52
2018-10-16T07:46:07.093Z,61.98
2018-10-16T07:48:42.298Z,62.69
2018-10-16T07:51:28.985Z,63.47
2018-10-16T07:54:03.525Z,62.10
2018-10-16T07:56:38.233Z,62.37
2018-10-16T07:59:13.409Z,61.95
2018-10-16T08:01:48.160Z,61.20
2018-10-16T08:04:22.689Z,57.62
2018-10-16T08:06:57.155Z,55.70
2018-10-16T08:09:31.942Z,57.88
2018-10-16T08:12:09.185Z,58.12
2018-10-16T08:14:43.668Z,57.78
2018-10-16T08:17:18.300Z,58.72
2018-10-16T08:19:52.819Z,57.00
2018-10-16T08:22:27.272Z,58.43
2018-10-16T08:25:01.843Z,54.60
2018-10-16T08:27:36.684Z,55.10
2018-10-16T08:30:11.682Z,52.87
2018-10-16T08:32:46.320Z,54.74
2018-10-16T08:35:21.252Z,51.59
2018-10-16T08:40:05.095Z,49.78
2018-10-16T08:42:50.954Z,51.92
2018-10-16T08:45:37.068Z,50.40
2018-10-16T08:48:23.066Z,47.63
2018-10-16T08:51:09.076Z,50.76
2018-10-16T08:53:43.513Z,49.30
2018-10-16T08:56:18.009Z,47.12
2018-10-16T08:58:52.441Z,46.63
2018-10-16T09:01:27.208Z,45.01
2018-10-16T09:04:06.517Z,44.95
2018-10-16T09:06:41.291Z,45.16
2018-10-16T09:09:17.041Z,45.47
2018-10-16T09:11:51.526Z,46.83
2018-10-16T09:14:26.212Z,48.01
2018-10-16T09:17:01.221Z,45.93
2018-10-16T09:19:35.674Z,46.99
2018-10-16T09:22:10.191Z,45.64
2018-10-16T09:24:44.936Z,43.67
2018-10-16T09:27:19.535Z,43.96
2018-10-16T09:29:54.051Z,45.19
2018-10-16T09:32:28.465Z,44.68
2018-10-16T09:35:02.984Z,45.64
2018-10-16T09:37:37.756Z,46.64
2018-10-16T09:40:13.346Z,46.69
2018-10-16T09:42:47.836Z,47.03
2018-10-16T09:45:22.540Z,47.02
2018-10-16T09:47:57.102Z,47.62
2018-10-16T09:50:32.007Z,47.37
2018-10-16T09:53:07.797Z,46.74
2018-10-16T09:55:44.802Z,46.41
2018-10-16T09:58:19.525Z,47.05
2018-10-16T10:00:59.361Z,47.22
2018-10-16T10:03:33.864Z,46.86
2018-10-16T10:06:11.789Z,46.94
2018-10-16T10:08:46.572Z,48.08
2018-10-16T10:14:30.649Z,46.99
2018-10-16T10:17:06.176Z,46.42
2018-10-16T10:19:48.801Z,46.97
2018-10-16T10:22:23.424Z,46.94
2018-10-16T10:24:58.041Z,46.51
2018-10-16T10:27:32.833Z,46.68
2018-10-16T10:30:10.513Z,46.53
2018-10-16T10:32:47.101Z,46.37
2018-10-16T10:35:22.169Z,45.82
2018-10-16T10:38:08.360Z,45.91
2018-10-16T10:40:43.013Z,45.87
2018-10-16T10:43:17.692Z,46.34
2018-10-16T10:45:52.286Z,45.64
2018-10-16T10:48:26.946Z,45.92
2018-10-16T10:51:02.143Z,46.03
2018-10-16T10:53:36.415Z,45.97
2018-10-16T10:56:10.941Z,45.71
2018-10-16T10:58:47.630Z,46.30
2018-10-16T11:01:22.333Z,45.91
2018-10-16T11:03:57.021Z,45.31
2018-10-16T11:06:31.917Z,44.79
2018-10-16T11:09:08.820Z,44.58
2018-10-16T11:11:48.841Z,44.69
2018-10-16T11:14:24.240Z,45.63
2018-10-16T11:16:58.783Z,44.58
2018-10-16T11:19:33.552Z,46.21
2018-10-16T11:22:27.277Z,45.67
2018-10-16T11:25:01.891Z,46.12
2018-10-16T11:27:37.112Z,45.27
2018-10-16T11:30:13.619Z,44.20
2018-10-16T11:32:48.014Z,44.03
2018-10-16T11:35:22.588Z,44.48
2018-10-16T11:37:57.208Z,44.81
2018-10-16T11:40:31.826Z,44.03
2018-10-16T11:43:06.400Z,43.95
2018-10-16T11:45:40.936Z,44.44
2018-10-16T11:48:23.081Z,44.19
2018-10-16T11:50:59.811Z,44.64
2018-10-16T11:53:39.938Z,44.58
2018-10-16T11:56:15.329Z,44.85
2018-10-16T11:59:02.420Z,45.16
2018-10-16T12:01:36.918Z,44.56
2018-10-16T12:04:11.769Z,43.57
2018-10-16T12:06:46.866Z,43.86
2018-10-16T12:09:36.817Z,44.01
2018-10-16T12:12:11.601Z,44.96
2018-10-16T12:15:00.493Z,44.56
2018-10-16T12:17:39.948Z,43.53
2018-10-16T12:20:20.428Z,43.99
2018-10-16T12:22:54.979Z,43.61
2018-10-16T12:25:29.831Z,44.93
2018-10-16T12:28:04.373Z,44.48
2018-10-16T12:30:39.013Z,44.68
2018-10-16T12:33:13.491Z,43.73
2018-10-16T12:35:48.341Z,43.43
2018-10-16T12:38:23.836Z,44.04
2018-10-16T12:40:58.549Z,43.53
2018-10-16T12:43:34.399Z,42.80
2018-10-16T12:46:08.947Z,43.69
2018-10-16T12:48:44.419Z,44.17
2018-10-16T12:51:22.090Z,43.74
2018-10-16T12:54:05.568Z,44.11
2018-10-16T12:59:48.618Z,43.49
2018-10-16T13:05:29.916Z,43.44
2018-10-16T13:08:04.355Z,43.24
2018-10-16T13:10:38.601Z,43.75
2018-10-16T13:13:13.024Z,43.21
2018-10-16T13:15:47.463Z,43.16
2018-10-16T13:18:21.893Z,43.75
2018-10-16T13:20:56.154Z,43.22
2018-10-16T13:23:30.449Z,44.41
2018-10-16T13:26:05.095Z,42.87
2018-10-16T13:28:39.283Z,44.05
2018-10-16T13:31:13.593Z,43.30
2018-10-16T13:33:47.798Z,43.30
2018-10-16T13:36:22.271Z,43.27
2018-10-16T13:38:56.742Z,42.81
2018-10-16T13:41:31.286Z,43.20
2018-10-16T13:44:05.781Z,43.99
2018-10-16T13:46:39.927Z,44.88
2018-10-16T13:49:14.527Z,43.98
2018-10-16T13:51:49.055Z,43.46
2018-10-16T13:54:23.908Z,44.00
2018-10-16T13:56:58.683Z,44.66
2018-10-16T13:59:33.240Z,44.46
2018-10-16T14:02:07.626Z,43.57
2018-10-16T14:04:42.346Z,43.95
2018-10-16T14:07:16.996Z,42.90
2018-10-16T14:09:51.353Z,43.14
2018-10-16T14:12:25.804Z,42.68
2018-10-16T14:15:00.129Z,43.77
2018-10-16T14:17:34.517Z,43.15
2018-10-16T14:20:09.858Z,46.13
2018-10-16T14:22:44.431Z,44.42
2018-10-16T14:25:24.947Z,43.20
2018-10-16T14:28:00.155Z,43.55
2018-10-16T14:30:34.763Z,43.86
2018-10-16T14:33:11.211Z,45.23
2018-10-16T14:35:45.608Z,46.02
2018-10-16T14:38:20.009Z,45.36
2018-10-16T14:40:55.083Z,44.86
2018-10-16T14:43:30.451Z,47.29
2018-10-16T14:49:06.624Z,48.91
2018-10-16T14:51:51.152Z,48.86
2018-10-16T14:54:26.544Z,49.73
2018-10-16T14:57:01.174Z,50.45
2018-10-16T14:59:39.198Z,50.83
2018-10-16T15:02:14.086Z,51.28
2018-10-16T15:05:01.252Z,51.76
2018-10-16T15:07:36.204Z,52.79
2018-10-16T15:10:11.939Z,52.78
2018-10-16T15:12:47.045Z,53.48
2018-10-16T15:15:38.323Z,53.82
2018-10-16T15:18:12.981Z,53.66
2018-10-16T15:20:47.904Z,54.15
2018-10-16T15:23:22.876Z,54.83
2018-10-16T15:25:57.351Z,54.72
2018-10-16T15:28:32.297Z,54.18
2018-10-16T15:31:07.197Z,54.40
2018-10-16T15:33:41.990Z,53.56
2018-10-16T15:36:16.863Z,52.94
2018-10-16T15:38:51.996Z,52.12
2018-10-16T15:41:26.364Z,51.78
2018-10-16T15:44:01.011Z,53.20
2018-10-16T15:46:35.492Z,53.02
2018-10-16T15:49:10.224Z,52.88
2018-10-16T15:51:44.965Z,52.93
2018-10-16T15:54:20.064Z,52.67
2018-10-16T15:56:55.067Z,53.51
2018-10-16T15:59:29.516Z,53.05
2018-10-16T16:02:04.176Z,54.08
2018-10-16T16:04:39.268Z,54.98
2018-10-16T16:07:14.308Z,55.15
2018-10-16T16:09:48.709Z,54.12
2018-10-16T16:12:23.293Z,54.21
2018-10-16T16:14:57.954Z,53.96
2018-10-16T16:17:32.520Z,55.46
2018-10-16T16:20:08.961Z,55.73
2018-10-16T16:22:43.937Z,55.23
2018-10-16T16:25:18.778Z,55.13
2018-10-16T16:27:53.536Z,56.07
2018-10-16T16:30:28.155Z,56.79
2018-10-16T16:33:02.790Z,56.46
2018-10-16T16:35:37.781Z,57.12
2018-10-16T16:38:12.499Z,56.75
2018-10-16T16:40:47.548Z,57.09
2018-10-16T16:43:21.986Z,57.05
2018-10-16T16:45:56.914Z,57.06
2018-10-16T16:48:31.575Z,56.57
2018-10-16T16:51:06.193Z,56.60
2018-10-16T16:53:40.897Z,56.57
2018-10-16T16:56:15.799Z,56.96
2018-10-16T16:58:50.718Z,56.62
2018-10-16T17:01:25.273Z,57.10
2018-10-16T17:03:59.844Z,57.77
2018-10-16T17:06:34.348Z,57.32
2018-10-16T17:09:10.152Z,56.70
2018-10-16T17:11:44.771Z,56.55
2018-10-16T17:14:19.252Z,57.03
2018-10-16T17:16:53.904Z,56.83
2018-10-16T17:19:28.853Z,56.72
2018-10-16T17:22:03.469Z,56.90
2018-10-16T17:24:38.298Z,56.17
2018-10-16T17:27:12.825Z,55.81
2018-10-16T17:29:47.458Z,55.77
2018-10-16T17:32:22.277Z,56.62
2018-10-16T17:34:56.821Z,55.91
2018-10-16T17:37:32.265Z,56.20
2018-10-16T17:40:08.468Z,56.52
2018-10-16T17:42:43.707Z,56.62
2018-10-16T17:45:18.433Z,56.09
2018-10-16T17:50:53.355Z,56.07
2018-10-16T17:53:29.264Z,56.22
2018-10-16T17:56:03.880Z,56.37
2018-10-16T17:58:43.927Z,57.12
2018-10-16T18:01:18.444Z,56.88
2018-10-16T18:03:52.892Z,56.86
2018-10-16T18:06:27.489Z,56.62
2018-10-16T18:09:02.226Z,56.73
2018-10-16T18:11:36.909Z,56.81
2018-10-16T18:14:11.681Z,57.07
2018-10-16T18:16:46.572Z,58.14
2018-10-16T18:19:21.150Z,57.15
2018-10-16T18:21:55.774Z,57.65
2018-10-16T18:24:30.472Z,57.58
2018-10-16T18:27:05.385Z,56.39
2018-10-16T18:29:40.037Z,56.39
2018-10-16T18:32:14.717Z,54.94
2018-10-16T18:34:49.632Z,54.90
2018-10-16T18:37:24.650Z,54.78
2018-10-16T18:39:59.385Z,55.35
2018-10-16T18:42:34.285Z,54.99
2018-10-16T18:45:10.285Z,54.95
2018-10-16T18:47:44.609Z,55.31
2018-10-16T18:50:19.321Z,55.37
2018-10-16T18:52:53.988Z,55.30
2018-10-16T18:55:28.917Z,56.27
2018-10-16T18:58:03.902Z,56.33
2018-10-16T19:00:39.484Z,56.07
2018-10-16T19:03:14.392Z,56.79
2018-10-16T19:05:49.406Z,56.98
2018-10-16T19:08:24.403Z,57.70
2018-10-16T19:10:59.080Z,58.24
2018-10-16T19:13:33.577Z,57.93
2018-10-16T19:16:08.194Z,58.38
2018-10-16T19:18:42.975Z,59.08
2018-10-16T19:21:17.465Z,59.86
2018-10-16T19:23:52.101Z,59.34
2018-10-16T19:26:27.203Z,59.35
2018-10-16T19:29:02.934Z,59.71
2018-10-16T19:31:37.605Z,59.82
2018-10-16T19:34:12.088Z,59.75
2018-10-16T19:36:46.849Z,59.88
2018-10-16T19:39:25.445Z,59.91
2018-10-16T19:42:00.167Z,59.39
2018-10-16T19:44:35.006Z,59.27
2018-10-16T19:47:09.972Z,58.79
2018-10-16T19:49:44.721Z,58.62
2018-10-16T19:52:19.400Z,58.56
2018-10-16T19:54:54.156Z,58.41
2018-10-16T19:57:29.465Z,58.47
2018-10-16T20:00:04.375Z,58.48
2018-10-16T20:02:39.268Z,58.51
2018-10-16T20:05:13.687Z,58.86
2018-10-16T20:08:01.737Z,58.97
2018-10-16T20:10:40.201Z,59.05
2018-10-16T20:13:15.362Z,59.50
2018-10-16T20:15:50.180Z,59.23
2018-10-16T20:18:24.734Z,59.25
2018-10-16T20:20:59.807Z,58.83
2018-10-16T20:23:41.118Z,58.83
2018-10-16T20:26:16.261Z,58.52
2018-10-16T20:28:51.004Z,58.87
2018-10-16T20:31:25.461Z,59.13
2018-10-16T20:34:00.289Z,59.37
2018-10-16T20:36:38.520Z,59.15
2018-10-16T20:39:14.243Z,58.71
2018-10-16T20:41:48.899Z,58.64
2018-10-16T20:44:23.732Z,58.71
2018-10-16T20:46:58.508Z,58.65
2018-10-16T20:52:33.061Z,60.09
2018-10-16T20:55:07.887Z,60.07
2018-10-16T20:57:42.661Z,59.95
2018-10-16T21:00:17.244Z,60.25
2018-10-16T21:02:51.841Z,59.67
2018-10-16T21:05:26.560Z,59.90
2018-10-16T21:08:01.004Z,59.67
2018-10-16T21:10:35.834Z,59.77
2018-10-16T21:13:10.569Z,60.51
2018-10-16T21:15:45.141Z,60.48
2018-10-16T21:18:19.644Z,60.43
2018-10-16T21:20:54.276Z,60.39
2018-10-16T21:23:29.052Z,60.26
2018-10-16T21:26:03.877Z,60.85
2018-10-16T21:28:38.452Z,60.53
2018-10-16T21:31:13.327Z,60.58
2018-10-16T21:33:48.264Z,61.14
2018-10-16T21:36:23.068Z,60.89
2018-10-16T21:38:57.732Z,60.72
2018-10-16T21:41:32.344Z,60.17
2018-10-16T21:44:07.807Z,60.70
2018-10-16T21:46:48.568Z,60.34
2018-10-16T21:49:24.048Z,60.53
2018-10-16T21:51:58.996Z,60.63
2018-10-16T21:54:55.579Z,61.15
2018-10-16T21:57:30.229Z,61.49
2018-10-16T22:00:05.781Z,61.80
2018-10-16T22:02:49.768Z,61.99
2018-10-16T22:05:24.864Z,62.36
2018-10-16T22:07:59.579Z,62.03
2018-10-16T22:10:34.144Z,62.14
2018-10-16T22:13:10.726Z,62.29
2018-10-16T22:15:50.653Z,62.36
2018-10-16T22:18:25.621Z,62.41
2018-10-16T22:21:00.301Z,62.27
2018-10-16T22:23:35.302Z,62.37
2018-10-16T22:26:09.937Z,62.88
2018-10-16T22:28:44.676Z,63.59
2018-10-16T22:31:19.921Z,63.58
2018-10-16T22:33:55.047Z,63.69
2018-10-16T22:36:29.600Z,63.75
2018-10-16T22:39:05.845Z,64.23
2018-10-16T22:41:40.390Z,64.31
2018-10-16T22:44:15.573Z,64.58
2018-10-16T22:46:50.345Z,64.84
2018-10-16T22:49:24.932Z,65.50
2018-10-16T22:52:00.300Z,65.59
2018-10-16T22:54:35.053Z,65.97
2018-10-16T22:57:09.605Z,66.62
2018-10-16T22:59:44.396Z,66.72
2018-10-16T23:02:19.028Z,66.90
2018-10-16T23:04:53.831Z,67.16
2018-10-16T23:07:29.994Z,66.77
2018-10-16T23:10:07.218Z,66.71
2018-10-16T23:12:41.912Z,66.98
2018-10-16T23:15:17.173Z,67.24
2018-10-16T23:17:51.997Z,68.39
2018-10-16T23:20:33.551Z,68.66
2018-10-16T23:23:08.450Z,69.12
2018-10-16T23:25:43.076Z,69.02
2018-10-16T23:28:30.080Z,69.42
2018-10-16T23:31:05.119Z,69.24
2018-10-16T23:33:39.620Z,69.61
2018-10-16T23:36:14.429Z,69.41
2018-10-16T23:38:49.114Z,69.31
2018-10-16T23:41:23.721Z,69.61
2018-10-16T23:43:58.199Z,69.37
2018-10-16T23:46:32.956Z,70.34
2018-10-16T23:49:08.347Z,70.15
2018-10-16T23:51:42.953Z,70.56
2018-10-16T23:54:18.136Z,70.85
2018-10-16T23:56:53.391Z,70.61
2018-10-16T23:59:28.620Z,70.96
